Terminal Aerodrome Forecast
Issued by NWS

Home | Current Version | Previous Version | Graphics & Text | Print | Product List | Glossary On
Versions: 1 2 3 4 5 6 7 8 9 10 11 12 13 14 15 16 17 18 19
000
FTUS43 KGRB 251740
TAFATW
TAF
KATW 251740Z 2518/2618 15010G15KT P6SM SCT120 BKN200
     FM252300 13009KT P6SM SCT080 BKN150
     FM260200 13009KT P6SM VCSH BKN070 OVC100 WS015/16030KT
     FM260700 14010KT 6SM -SHRA BR SCT025 BKN040 WS015/17040KT
      PROB30 2608/2614 4SM -SHRA BR OVC022
     FM261400 17013G17KT 4SM -RA SCT020 OVC030=

USA.gov is the U.S. government's official web portal to all federal, state and local government web resources and services.